sensor_id;sensor_type;location;lat;lon;timestamp;P1;durP1;ratioP1;P2;durP2;ratioP2
34102;SDS011;20381;54.498;18.206;2023-07-09T00:00:13;15.32;;;12.00;;
34102;SDS011;20381;54.498;18.206;2023-07-09T00:02:43;15.90;;;12.05;;
34102;SDS011;20381;54.498;18.206;2023-07-09T00:07:39;8.58;;;7.08;;
34102;SDS011;20381;54.498;18.206;2023-07-09T00:10:25;12.23;;;6.50;;
34102;SDS011;20381;54.498;18.206;2023-07-09T00:12:42;10.63;;;5.72;;
34102;SDS011;20381;54.498;18.206;2023-07-09T00:15:10;8.53;;;5.65;;
34102;SDS011;20381;54.498;18.206;2023-07-09T00:17:37;9.23;;;5.80;;
34102;SDS011;20381;54.498;18.206;2023-07-09T00:20:06;10.72;;;6.47;;
34102;SDS011;20381;54.498;18.206;2023-07-09T00:22:36;7.83;;;5.42;;
34102;SDS011;20381;54.498;18.206;2023-07-09T00:25:03;9.75;;;6.10;;
34102;SDS011;20381;54.498;18.206;2023-07-09T00:27:30;14.38;;;6.85;;
34102;SDS011;20381;54.498;18.206;2023-07-09T00:29:56;9.53;;;6.20;;
34102;SDS011;20381;54.498;18.206;2023-07-09T00:32:23;10.03;;;5.17;;
34102;SDS011;20381;54.498;18.206;2023-07-09T00:34:51;6.72;;;5.12;;
34102;SDS011;20381;54.498;18.206;2023-07-09T00:37:19;9.75;;;5.70;;
34102;SDS011;20381;54.498;18.206;2023-07-09T00:39:48;10.03;;;5.87;;
34102;SDS011;20381;54.498;18.206;2023-07-09T00:42:15;10.43;;;7.10;;
34102;SDS011;20381;54.498;18.206;2023-07-09T00:44:49;9.28;;;5.92;;
34102;SDS011;20381;54.498;18.206;2023-07-09T00:47:40;9.28;;;5.95;;
34102;SDS011;20381;54.498;18.206;2023-07-09T00:52:55;13.78;;;7.20;;
34102;SDS011;20381;54.498;18.206;2023-07-09T00:55:29;8.95;;;6.40;;
34102;SDS011;20381;54.498;18.206;2023-07-09T00:58:00;11.85;;;6.55;;
34102;SDS011;20381;54.498;18.206;2023-07-09T01:00:30;10.23;;;6.90;;
34102;SDS011;20381;54.498;18.206;2023-07-09T01:02:59;10.08;;;6.70;;
34102;SDS011;20381;54.498;18.206;2023-07-09T01:05:26;11.70;;;7.00;;
34102;SDS011;20381;54.498;18.206;2023-07-09T01:07:53;13.98;;;7.65;;
34102;SDS011;20381;54.498;18.206;2023-07-09T01:10:19;8.80;;;6.60;;
34102;SDS011;20381;54.498;18.206;2023-07-09T01:12:45;11.83;;;7.28;;
34102;SDS011;20381;54.498;18.206;2023-07-09T01:15:15;10.50;;;6.67;;
34102;SDS011;20381;54.498;18.206;2023-07-09T01:17:42;9.03;;;6.78;;
34102;SDS011;20381;54.498;18.206;2023-07-09T01:20:14;10.85;;;7.37;;
34102;SDS011;20381;54.498;18.206;2023-07-09T01:22:40;11.90;;;7.53;;
34102;SDS011;20381;54.498;18.206;2023-07-09T01:25:06;9.70;;;6.83;;
34102;SDS011;20381;54.498;18.206;2023-07-09T01:27:40;11.20;;;8.05;;
34102;SDS011;20381;54.498;18.206;2023-07-09T01:30:07;10.50;;;7.67;;
34102;SDS011;20381;54.498;18.206;2023-07-09T01:32:41;10.43;;;7.85;;
34102;SDS011;20381;54.498;18.206;2023-07-09T01:35:12;9.78;;;8.00;;
34102;SDS011;20381;54.498;18.206;2023-07-09T01:37:40;12.40;;;8.25;;
34102;SDS011;20381;54.498;18.206;2023-07-09T01:40:09;13.40;;;7.78;;
34102;SDS011;20381;54.498;18.206;2023-07-09T01:42:37;10.78;;;7.78;;
34102;SDS011;20381;54.498;18.206;2023-07-09T01:45:04;14.45;;;8.15;;
34102;SDS011;20381;54.498;18.206;2023-07-09T01:47:33;12.50;;;8.30;;
34102;SDS011;20381;54.498;18.206;2023-07-09T01:49:59;12.20;;;8.20;;
34102;SDS011;20381;54.498;18.206;2023-07-09T01:52:28;11.85;;;7.40;;
34102;SDS011;20381;54.498;18.206;2023-07-09T01:54:57;12.23;;;7.30;;
34102;SDS011;20381;54.498;18.206;2023-07-09T01:57:26;10.93;;;7.17;;
34102;SDS011;20381;54.498;18.206;2023-07-09T01:59:55;7.25;;;6.53;;
34102;SDS011;20381;54.498;18.206;2023-07-09T02:02:21;11.03;;;7.30;;
34102;SDS011;20381;54.498;18.206;2023-07-09T02:04:49;12.35;;;7.17;;
34102;SDS011;20381;54.498;18.206;2023-07-09T02:07:17;13.55;;;6.75;;
34102;SDS011;20381;54.498;18.206;2023-07-09T02:09:46;16.05;;;6.62;;
34102;SDS011;20381;54.498;18.206;2023-07-09T02:12:15;8.85;;;6.70;;
34102;SDS011;20381;54.498;18.206;2023-07-09T02:14:41;8.83;;;6.42;;
34102;SDS011;20381;54.498;18.206;2023-07-09T02:17:10;9.35;;;6.15;;
34102;SDS011;20381;54.498;18.206;2023-07-09T02:19:38;8.13;;;6.25;;
34102;SDS011;20381;54.498;18.206;2023-07-09T02:22:05;8.28;;;6.62;;
34102;SDS011;20381;54.498;18.206;2023-07-09T02:24:33;8.63;;;6.25;;
34102;SDS011;20381;54.498;18.206;2023-07-09T02:27:00;10.43;;;6.97;;
34102;SDS011;20381;54.498;18.206;2023-07-09T02:29:29;9.55;;;6.62;;
34102;SDS011;20381;54.498;18.206;2023-07-09T02:32:00;13.05;;;7.47;;
34102;SDS011;20381;54.498;18.206;2023-07-09T02:34:25;14.60;;;9.23;;
34102;SDS011;20381;54.498;18.206;2023-07-09T02:36:53;14.70;;;9.45;;
34102;SDS011;20381;54.498;18.206;2023-07-09T02:39:21;14.05;;;7.58;;
34102;SDS011;20381;54.498;18.206;2023-07-09T02:41:48;10.50;;;6.92;;
34102;SDS011;20381;54.498;18.206;2023-07-09T02:44:16;8.78;;;6.47;;
34102;SDS011;20381;54.498;18.206;2023-07-09T02:46:44;10.60;;;6.72;;
34102;SDS011;20381;54.498;18.206;2023-07-09T02:49:11;13.75;;;6.50;;
34102;SDS011;20381;54.498;18.206;2023-07-09T02:51:39;10.63;;;6.22;;
34102;SDS011;20381;54.498;18.206;2023-07-09T02:54:06;12.37;;;6.75;;
34102;SDS011;20381;54.498;18.206;2023-07-09T02:56:33;12.40;;;7.40;;
34102;SDS011;20381;54.498;18.206;2023-07-09T02:59:02;11.78;;;7.20;;
34102;SDS011;20381;54.498;18.206;2023-07-09T03:01:28;13.43;;;8.43;;
34102;SDS011;20381;54.498;18.206;2023-07-09T03:03:55;14.63;;;8.93;;
34102;SDS011;20381;54.498;18.206;2023-07-09T03:06:24;11.20;;;6.92;;
34102;SDS011;20381;54.498;18.206;2023-07-09T03:08:50;14.10;;;7.00;;
34102;SDS011;20381;54.498;18.206;2023-07-09T03:11:17;10.90;;;7.03;;
34102;SDS011;20381;54.498;18.206;2023-07-09T03:13:45;9.60;;;6.65;;
34102;SDS011;20381;54.498;18.206;2023-07-09T03:16:13;10.20;;;6.80;;
34102;SDS011;20381;54.498;18.206;2023-07-09T03:18:40;10.78;;;6.22;;
34102;SDS011;20381;54.498;18.206;2023-07-09T03:21:06;9.15;;;5.85;;
34102;SDS011;20381;54.498;18.206;2023-07-09T03:23:32;9.40;;;6.33;;
34102;SDS011;20381;54.498;18.206;2023-07-09T03:25:59;7.30;;;5.92;;
34102;SDS011;20381;54.498;18.206;2023-07-09T03:28:25;9.10;;;5.80;;
34102;SDS011;20381;54.498;18.206;2023-07-09T03:30:54;8.38;;;6.42;;
34102;SDS011;20381;54.498;18.206;2023-07-09T03:33:21;12.25;;;5.70;;
34102;SDS011;20381;54.498;18.206;2023-07-09T03:35:49;7.80;;;5.92;;
34102;SDS011;20381;54.498;18.206;2023-07-09T03:38:16;7.80;;;5.62;;
34102;SDS011;20381;54.498;18.206;2023-07-09T03:40:42;7.80;;;6.25;;
34102;SDS011;20381;54.498;18.206;2023-07-09T03:43:09;9.35;;;5.83;;
34102;SDS011;20381;54.498;18.206;2023-07-09T03:45:36;9.38;;;5.92;;
34102;SDS011;20381;54.498;18.206;2023-07-09T03:48:04;8.50;;;6.35;;
34102;SDS011;20381;54.498;18.206;2023-07-09T03:50:31;9.28;;;6.12;;
34102;SDS011;20381;54.498;18.206;2023-07-09T03:52:57;9.28;;;6.28;;
34102;SDS011;20381;54.498;18.206;2023-07-09T03:55:23;9.33;;;6.58;;
34102;SDS011;20381;54.498;18.206;2023-07-09T03:57:52;9.78;;;7.00;;
34102;SDS011;20381;54.498;18.206;2023-07-09T04:00:22;9.35;;;6.62;;
34102;SDS011;20381;54.498;18.206;2023-07-09T04:02:50;9.40;;;6.22;;
34102;SDS011;20381;54.498;18.206;2023-07-09T04:05:18;10.93;;;6.22;;
34102;SDS011;20381;54.498;18.206;2023-07-09T04:07:44;8.48;;;5.97;;
34102;SDS011;20381;54.498;18.206;2023-07-09T04:10:11;7.97;;;5.67;;
34102;SDS011;20381;54.498;18.206;2023-07-09T04:12:39;8.48;;;5.58;;
34102;SDS011;20381;54.498;18.206;2023-07-09T04:15:06;9.58;;;6.50;;
34102;SDS011;20381;54.498;18.206;2023-07-09T04:17:33;11.78;;;6.10;;
34102;SDS011;20381;54.498;18.206;2023-07-09T04:20:00;11.05;;;6.05;;
34102;SDS011;20381;54.498;18.206;2023-07-09T04:22:30;7.92;;;5.47;;
34102;SDS011;20381;54.498;18.206;2023-07-09T04:24:56;8.05;;;6.08;;
34102;SDS011;20381;54.498;18.206;2023-07-09T04:27:23;8.95;;;5.92;;
34102;SDS011;20381;54.498;18.206;2023-07-09T04:29:53;8.28;;;5.75;;
34102;SDS011;20381;54.498;18.206;2023-07-09T04:32:20;7.78;;;5.70;;
34102;SDS011;20381;54.498;18.206;2023-07-09T04:34:51;9.95;;;5.85;;
34102;SDS011;20381;54.498;18.206;2023-07-09T04:37:16;9.65;;;6.03;;
34102;SDS011;20381;54.498;18.206;2023-07-09T04:39:44;7.97;;;5.53;;
34102;SDS011;20381;54.498;18.206;2023-07-09T04:42:11;7.78;;;5.35;;
34102;SDS011;20381;54.498;18.206;2023-07-09T04:44:39;9.03;;;5.28;;
34102;SDS011;20381;54.498;18.206;2023-07-09T04:47:06;6.08;;;5.45;;
34102;SDS011;20381;54.498;18.206;2023-07-09T04:49:34;6.47;;;5.50;;
34102;SDS011;20381;54.498;18.206;2023-07-09T04:52:00;6.45;;;5.17;;
34102;SDS011;20381;54.498;18.206;2023-07-09T04:54:27;7.20;;;5.25;;
34102;SDS011;20381;54.498;18.206;2023-07-09T04:56:53;7.87;;;5.10;;
34102;SDS011;20381;54.498;18.206;2023-07-09T04:59:22;8.75;;;4.95;;
34102;SDS011;20381;54.498;18.206;2023-07-09T05:04:15;11.50;;;4.70;;
34102;SDS011;20381;54.498;18.206;2023-07-09T05:06:42;9.37;;;5.30;;
34102;SDS011;20381;54.498;18.206;2023-07-09T05:09:08;5.42;;;4.15;;
34102;SDS011;20381;54.498;18.206;2023-07-09T05:11:35;7.60;;;4.60;;
34102;SDS011;20381;54.498;18.206;2023-07-09T05:14:03;7.10;;;4.65;;
34102;SDS011;20381;54.498;18.206;2023-07-09T05:18:56;5.83;;;3.70;;
34102;SDS011;20381;54.498;18.206;2023-07-09T05:21:22;6.17;;;3.58;;
34102;SDS011;20381;54.498;18.206;2023-07-09T05:23:48;7.80;;;3.95;;
34102;SDS011;20381;54.498;18.206;2023-07-09T05:26:15;5.33;;;3.40;;
34102;SDS011;20381;54.498;18.206;2023-07-09T05:28:41;4.33;;;2.85;;
34102;SDS011;20381;54.498;18.206;2023-07-09T05:31:07;7.92;;;3.20;;
34102;SDS011;20381;54.498;18.206;2023-07-09T05:33:34;6.53;;;3.53;;
34102;SDS011;20381;54.498;18.206;2023-07-09T05:36:00;23.27;;;3.72;;
34102;SDS011;20381;54.498;18.206;2023-07-09T05:38:28;6.58;;;2.92;;
34102;SDS011;20381;54.498;18.206;2023-07-09T05:41:00;4.12;;;2.80;;
34102;SDS011;20381;54.498;18.206;2023-07-09T05:43:28;4.55;;;2.87;;
34102;SDS011;20381;54.498;18.206;2023-07-09T05:45:55;4.37;;;2.42;;
34102;SDS011;20381;54.498;18.206;2023-07-09T05:48:22;3.47;;;2.37;;
34102;SDS011;20381;54.498;18.206;2023-07-09T05:50:52;4.47;;;2.40;;
34102;SDS011;20381;54.498;18.206;2023-07-09T05:53:18;4.10;;;2.30;;
34102;SDS011;20381;54.498;18.206;2023-07-09T05:55:45;4.30;;;2.80;;
34102;SDS011;20381;54.498;18.206;2023-07-09T05:58:13;2.85;;;1.98;;
34102;SDS011;20381;54.498;18.206;2023-07-09T06:00:40;3.22;;;1.75;;
34102;SDS011;20381;54.498;18.206;2023-07-09T06:05:36;3.30;;;2.15;;
34102;SDS011;20381;54.498;18.206;2023-07-09T06:08:03;2.75;;;2.02;;
34102;SDS011;20381;54.498;18.206;2023-07-09T06:10:30;3.62;;;1.92;;
34102;SDS011;20381;54.498;18.206;2023-07-09T06:12:57;5.93;;;2.20;;
34102;SDS011;20381;54.498;18.206;2023-07-09T06:15:26;3.25;;;1.67;;
34102;SDS011;20381;54.498;18.206;2023-07-09T06:17:53;4.78;;;1.35;;
34102;SDS011;20381;54.498;18.206;2023-07-09T06:20:19;3.17;;;1.57;;
34102;SDS011;20381;54.498;18.206;2023-07-09T06:22:45;2.57;;;1.30;;
34102;SDS011;20381;54.498;18.206;2023-07-09T06:25:11;3.55;;;1.37;;
34102;SDS011;20381;54.498;18.206;2023-07-09T06:30:05;1.47;;;1.13;;
34102;SDS011;20381;54.498;18.206;2023-07-09T06:32:32;2.47;;;1.30;;
34102;SDS011;20381;54.498;18.206;2023-07-09T06:34:58;1.47;;;1.00;;
34102;SDS011;20381;54.498;18.206;2023-07-09T06:37:26;1.30;;;1.10;;
34102;SDS011;20381;54.498;18.206;2023-07-09T06:39:53;3.83;;;1.45;;
34102;SDS011;20381;54.498;18.206;2023-07-09T06:42:21;2.62;;;1.00;;
34102;SDS011;20381;54.498;18.206;2023-07-09T06:44:47;3.35;;;1.20;;
34102;SDS011;20381;54.498;18.206;2023-07-09T06:47:13;1.87;;;1.17;;
34102;SDS011;20381;54.498;18.206;2023-07-09T06:49:40;1.47;;;1.20;;
34102;SDS011;20381;54.498;18.206;2023-07-09T06:52:06;1.87;;;1.23;;
34102;SDS011;20381;54.498;18.206;2023-07-09T06:54:34;77.82;;;4.47;;
34102;SDS011;20381;54.498;18.206;2023-07-09T06:57:01;1.83;;;0.87;;
34102;SDS011;20381;54.498;18.206;2023-07-09T06:59:27;2.33;;;1.17;;
34102;SDS011;20381;54.498;18.206;2023-07-09T07:01:54;3.22;;;1.07;;
34102;SDS011;20381;54.498;18.206;2023-07-09T07:04:20;1.32;;;0.90;;
34102;SDS011;20381;54.498;18.206;2023-07-09T07:06:47;1.00;;;0.78;;
34102;SDS011;20381;54.498;18.206;2023-07-09T07:09:13;2.75;;;0.60;;
34102;SDS011;20381;54.498;18.206;2023-07-09T07:11:39;2.05;;;0.88;;
34102;SDS011;20381;54.498;18.206;2023-07-09T07:14:06;1.72;;;0.80;;
34102;SDS011;20381;54.498;18.206;2023-07-09T07:16:32;1.30;;;0.95;;
34102;SDS011;20381;54.498;18.206;2023-07-09T07:19:03;1.02;;;0.60;;
34102;SDS011;20381;54.498;18.206;2023-07-09T07:21:34;0.70;;;0.50;;
34102;SDS011;20381;54.498;18.206;2023-07-09T07:23:59;0.88;;;0.70;;
34102;SDS011;20381;54.498;18.206;2023-07-09T07:26:26;1.55;;;0.72;;
34102;SDS011;20381;54.498;18.206;2023-07-09T07:28:53;0.98;;;0.70;;
34102;SDS011;20381;54.498;18.206;2023-07-09T07:31:19;1.22;;;0.50;;
34102;SDS011;20381;54.498;18.206;2023-07-09T07:33:45;1.40;;;0.75;;
34102;SDS011;20381;54.498;18.206;2023-07-09T07:38:38;0.88;;;0.80;;
34102;SDS011;20381;54.498;18.206;2023-07-09T07:41:04;0.70;;;0.70;;
34102;SDS011;20381;54.498;18.206;2023-07-09T07:43:30;0.70;;;0.68;;
34102;SDS011;20381;54.498;18.206;2023-07-09T07:45:57;1.17;;;0.78;;
34102;SDS011;20381;54.498;18.206;2023-07-09T07:48:23;1.62;;;0.88;;
34102;SDS011;20381;54.498;18.206;2023-07-09T07:50:49;1.00;;;0.80;;
34102;SDS011;20381;54.498;18.206;2023-07-09T07:53:17;1.40;;;0.60;;
34102;SDS011;20381;54.498;18.206;2023-07-09T07:55:43;2.50;;;0.70;;
34102;SDS011;20381;54.498;18.206;2023-07-09T07:58:10;1.10;;;0.82;;
34102;SDS011;20381;54.498;18.206;2023-07-09T08:00:38;1.62;;;1.10;;
34102;SDS011;20381;54.498;18.206;2023-07-09T08:03:06;1.20;;;0.90;;
34102;SDS011;20381;54.498;18.206;2023-07-09T08:05:32;1.62;;;1.07;;
34102;SDS011;20381;54.498;18.206;2023-07-09T08:07:59;1.07;;;0.82;;
34102;SDS011;20381;54.498;18.206;2023-07-09T08:10:25;2.60;;;1.20;;
34102;SDS011;20381;54.498;18.206;2023-07-09T08:12:52;2.25;;;0.85;;
34102;SDS011;20381;54.498;18.206;2023-07-09T08:15:20;1.30;;;0.88;;
34102;SDS011;20381;54.498;18.206;2023-07-09T08:17:46;1.65;;;0.90;;
34102;SDS011;20381;54.498;18.206;2023-07-09T08:20:13;1.75;;;1.07;;
34102;SDS011;20381;54.498;18.206;2023-07-09T08:22:40;1.52;;;1.00;;
34102;SDS011;20381;54.498;18.206;2023-07-09T08:25:07;1.47;;;1.30;;
34102;SDS011;20381;54.498;18.206;2023-07-09T08:27:34;2.55;;;1.10;;
34102;SDS011;20381;54.498;18.206;2023-07-09T08:30:01;0.88;;;0.88;;
34102;SDS011;20381;54.498;18.206;2023-07-09T08:32:27;1.42;;;1.20;;
34102;SDS011;20381;54.498;18.206;2023-07-09T08:34:55;1.40;;;1.02;;
34102;SDS011;20381;54.498;18.206;2023-07-09T08:37:21;1.98;;;1.00;;
34102;SDS011;20381;54.498;18.206;2023-07-09T08:39:48;1.77;;;1.10;;
34102;SDS011;20381;54.498;18.206;2023-07-09T08:42:16;1.47;;;1.07;;
34102;SDS011;20381;54.498;18.206;2023-07-09T08:45:00;3.35;;;1.20;;
34102;SDS011;20381;54.498;18.206;2023-07-09T08:47:59;2.62;;;1.10;;
34102;SDS011;20381;54.498;18.206;2023-07-09T08:50:32;2.72;;;1.05;;
34102;SDS011;20381;54.498;18.206;2023-07-09T08:53:12;1.67;;;1.30;;
34102;SDS011;20381;54.498;18.206;2023-07-09T08:55:42;3.17;;;1.15;;
34102;SDS011;20381;54.498;18.206;2023-07-09T08:58:10;2.95;;;1.10;;
34102;SDS011;20381;54.498;18.206;2023-07-09T09:00:50;1.65;;;1.10;;
34102;SDS011;20381;54.498;18.206;2023-07-09T09:03:29;1.42;;;1.10;;
34102;SDS011;20381;54.498;18.206;2023-07-09T09:05:57;1.17;;;0.90;;
34102;SDS011;20381;54.498;18.206;2023-07-09T09:08:29;3.72;;;1.22;;
34102;SDS011;20381;54.498;18.206;2023-07-09T09:11:04;3.08;;;0.95;;
34102;SDS011;20381;54.498;18.206;2023-07-09T09:13:34;1.77;;;1.10;;
34102;SDS011;20381;54.498;18.206;2023-07-09T09:16:04;3.22;;;1.20;;
34102;SDS011;20381;54.498;18.206;2023-07-09T09:18:42;1.25;;;0.95;;
34102;SDS011;20381;54.498;18.206;2023-07-09T09:21:16;1.62;;;1.12;;
34102;SDS011;20381;54.498;18.206;2023-07-09T09:23:46;1.52;;;1.25;;
34102;SDS011;20381;54.498;18.206;2023-07-09T09:26:24;2.22;;;1.22;;
34102;SDS011;20381;54.498;18.206;2023-07-09T09:28:48;4.00;;;1.20;;
34102;SDS011;20381;54.498;18.206;2023-07-09T09:31:14;1.20;;;1.00;;
34102;SDS011;20381;54.498;18.206;2023-07-09T09:33:44;1.67;;;1.20;;
34102;SDS011;20381;54.498;18.206;2023-07-09T09:36:22;2.37;;;1.40;;
34102;SDS011;20381;54.498;18.206;2023-07-09T09:38:48;1.27;;;1.12;;
34102;SDS011;20381;54.498;18.206;2023-07-09T09:41:20;1.47;;;1.20;;
34102;SDS011;20381;54.498;18.206;2023-07-09T09:43:51;1.40;;;1.30;;
34102;SDS011;20381;54.498;18.206;2023-07-09T09:46:19;2.15;;;1.37;;
34102;SDS011;20381;54.498;18.206;2023-07-09T09:48:58;2.35;;;1.40;;
34102;SDS011;20381;54.498;18.206;2023-07-09T09:51:27;1.40;;;1.30;;
34102;SDS011;20381;54.498;18.206;2023-07-09T09:53:58;1.90;;;1.20;;
34102;SDS011;20381;54.498;18.206;2023-07-09T09:56:33;1.55;;;1.17;;
34102;SDS011;20381;54.498;18.206;2023-07-09T09:58:58;1.40;;;1.00;;
34102;SDS011;20381;54.498;18.206;2023-07-09T10:01:28;3.77;;;1.27;;
34102;SDS011;20381;54.498;18.206;2023-07-09T10:03:58;2.05;;;1.00;;
34102;SDS011;20381;54.498;18.206;2023-07-09T10:06:36;1.80;;;1.27;;
34102;SDS011;20381;54.498;18.206;2023-07-09T10:09:14;1.90;;;1.00;;
34102;SDS011;20381;54.498;18.206;2023-07-09T10:12:01;1.72;;;1.00;;
34102;SDS011;20381;54.498;18.206;2023-07-09T10:17:23;2.27;;;1.35;;
34102;SDS011;20381;54.498;18.206;2023-07-09T10:20:09;1.72;;;1.10;;
34102;SDS011;20381;54.498;18.206;2023-07-09T10:22:57;3.70;;;1.30;;
34102;SDS011;20381;54.498;18.206;2023-07-09T10:25:42;1.12;;;0.93;;
34102;SDS011;20381;54.498;18.206;2023-07-09T10:37:00;2.35;;;1.30;;
34102;SDS011;20381;54.498;18.206;2023-07-09T10:39:47;1.40;;;1.30;;
34102;SDS011;20381;54.498;18.206;2023-07-09T10:42:21;2.95;;;1.60;;
34102;SDS011;20381;54.498;18.206;2023-07-09T10:44:53;3.45;;;1.40;;
34102;SDS011;20381;54.498;18.206;2023-07-09T10:50:14;3.25;;;1.40;;
34102;SDS011;20381;54.498;18.206;2023-07-09T10:52:37;1.80;;;1.30;;
34102;SDS011;20381;54.498;18.206;2023-07-09T10:55:12;1.87;;;1.40;;
34102;SDS011;20381;54.498;18.206;2023-07-09T10:57:59;1.40;;;1.30;;
34102;SDS011;20381;54.498;18.206;2023-07-09T11:00:35;1.52;;;1.40;;
34102;SDS011;20381;54.498;18.206;2023-07-09T11:03:27;3.95;;;1.50;;
34102;SDS011;20381;54.498;18.206;2023-07-09T11:05:50;1.75;;;1.37;;
34102;SDS011;20381;54.498;18.206;2023-07-09T11:08:25;2.17;;;1.40;;
34102;SDS011;20381;54.498;18.206;2023-07-09T11:10:54;1.92;;;1.62;;
34102;SDS011;20381;54.498;18.206;2023-07-09T11:16:06;2.20;;;1.50;;
34102;SDS011;20381;54.498;18.206;2023-07-09T11:18:35;1.80;;;1.22;;
34102;SDS011;20381;54.498;18.206;2023-07-09T11:21:14;1.80;;;1.10;;
34102;SDS011;20381;54.498;18.206;2023-07-09T11:23:54;1.52;;;1.07;;
34102;SDS011;20381;54.498;18.206;2023-07-09T11:26:24;2.00;;;1.15;;
34102;SDS011;20381;54.498;18.206;2023-07-09T11:29:09;2.72;;;1.00;;
34102;SDS011;20381;54.498;18.206;2023-07-09T11:31:35;1.65;;;1.20;;
34102;SDS011;20381;54.498;18.206;2023-07-09T11:34:08;2.45;;;1.10;;
34102;SDS011;20381;54.498;18.206;2023-07-09T11:39:17;5.95;;;1.37;;
34102;SDS011;20381;54.498;18.206;2023-07-09T11:41:55;1.35;;;1.22;;
34102;SDS011;20381;54.498;18.206;2023-07-09T11:44:23;2.83;;;1.07;;
34102;SDS011;20381;54.498;18.206;2023-07-09T11:52:41;4.05;;;1.10;;
34102;SDS011;20381;54.498;18.206;2023-07-09T11:58:15;1.87;;;1.20;;
34102;SDS011;20381;54.498;18.206;2023-07-09T12:00:44;2.10;;;0.90;;
34102;SDS011;20381;54.498;18.206;2023-07-09T12:03:15;1.90;;;1.07;;
34102;SDS011;20381;54.498;18.206;2023-07-09T12:05:52;4.58;;;1.37;;
34102;SDS011;20381;54.498;18.206;2023-07-09T12:08:43;3.33;;;1.02;;
34102;SDS011;20381;54.498;18.206;2023-07-09T12:10:56;1.65;;;1.07;;
34102;SDS011;20381;54.498;18.206;2023-07-09T12:13:27;2.47;;;1.57;;
34102;SDS011;20381;54.498;18.206;2023-07-09T12:15:55;4.22;;;1.55;;
34102;SDS011;20381;54.498;18.206;2023-07-09T12:18:26;4.80;;;1.50;;
34102;SDS011;20381;54.498;18.206;2023-07-09T12:20:57;2.67;;;1.77;;
34102;SDS011;20381;54.498;18.206;2023-07-09T12:23:29;4.40;;;1.72;;
34102;SDS011;20381;54.498;18.206;2023-07-09T12:26:02;3.05;;;1.87;;
34102;SDS011;20381;54.498;18.206;2023-07-09T12:28:30;2.25;;;1.90;;
34102;SDS011;20381;54.498;18.206;2023-07-09T12:31:04;2.60;;;1.60;;
34102;SDS011;20381;54.498;18.206;2023-07-09T12:33:29;2.62;;;1.42;;
34102;SDS011;20381;54.498;18.206;2023-07-09T12:35:57;2.02;;;1.70;;
34102;SDS011;20381;54.498;18.206;2023-07-09T12:38:27;5.37;;;1.85;;
34102;SDS011;20381;54.498;18.206;2023-07-09T12:40:55;2.60;;;1.65;;
34102;SDS011;20381;54.498;18.206;2023-07-09T12:43:26;2.37;;;1.60;;
34102;SDS011;20381;54.498;18.206;2023-07-09T12:46:00;6.40;;;2.20;;
34102;SDS011;20381;54.498;18.206;2023-07-09T12:48:28;2.35;;;1.60;;
34102;SDS011;20381;54.498;18.206;2023-07-09T12:53:35;4.55;;;1.75;;
34102;SDS011;20381;54.498;18.206;2023-07-09T12:56:03;3.42;;;2.10;;
34102;SDS011;20381;54.498;18.206;2023-07-09T12:58:37;3.00;;;1.35;;
34102;SDS011;20381;54.498;18.206;2023-07-09T13:01:06;2.67;;;1.77;;
34102;SDS011;20381;54.498;18.206;2023-07-09T13:03:37;6.20;;;2.08;;
34102;SDS011;20381;54.498;18.206;2023-07-09T13:06:04;1.80;;;1.40;;
34102;SDS011;20381;54.498;18.206;2023-07-09T13:08:40;3.33;;;1.62;;
34102;SDS011;20381;54.498;18.206;2023-07-09T13:11:16;3.17;;;1.40;;
34102;SDS011;20381;54.498;18.206;2023-07-09T13:13:54;2.85;;;1.52;;
34102;SDS011;20381;54.498;18.206;2023-07-09T13:16:27;1.60;;;1.40;;
34102;SDS011;20381;54.498;18.206;2023-07-09T13:18:51;3.33;;;1.25;;
34102;SDS011;20381;54.498;18.206;2023-07-09T13:21:18;2.77;;;1.80;;
34102;SDS011;20381;54.498;18.206;2023-07-09T13:23:49;1.87;;;1.67;;
34102;SDS011;20381;54.498;18.206;2023-07-09T13:26:16;2.50;;;1.67;;
34102;SDS011;20381;54.498;18.206;2023-07-09T13:28:43;2.62;;;1.62;;
34102;SDS011;20381;54.498;18.206;2023-07-09T13:31:14;2.12;;;1.50;;
34102;SDS011;20381;54.498;18.206;2023-07-09T13:36:15;3.17;;;1.70;;
34102;SDS011;20381;54.498;18.206;2023-07-09T13:38:42;6.50;;;1.95;;
34102;SDS011;20381;54.498;18.206;2023-07-09T13:41:12;1.92;;;1.60;;
34102;SDS011;20381;54.498;18.206;2023-07-09T13:43:44;2.67;;;1.70;;
34102;SDS011;20381;54.498;18.206;2023-07-09T13:46:12;3.45;;;1.65;;
34102;SDS011;20381;54.498;18.206;2023-07-09T13:48:40;3.15;;;1.52;;
34102;SDS011;20381;54.498;18.206;2023-07-09T13:51:16;3.02;;;1.42;;
34102;SDS011;20381;54.498;18.206;2023-07-09T13:53:45;2.42;;;1.55;;
34102;SDS011;20381;54.498;18.206;2023-07-09T13:56:12;2.77;;;1.62;;
34102;SDS011;20381;54.498;18.206;2023-07-09T13:58:39;7.12;;;1.82;;
34102;SDS011;20381;54.498;18.206;2023-07-09T14:01:15;2.72;;;1.55;;
34102;SDS011;20381;54.498;18.206;2023-07-09T14:03:41;5.50;;;2.20;;
34102;SDS011;20381;54.498;18.206;2023-07-09T14:06:12;2.33;;;1.70;;
34102;SDS011;20381;54.498;18.206;2023-07-09T14:08:41;2.40;;;1.45;;
34102;SDS011;20381;54.498;18.206;2023-07-09T14:11:13;3.35;;;2.02;;
34102;SDS011;20381;54.498;18.206;2023-07-09T14:13:43;3.25;;;1.80;;
34102;SDS011;20381;54.498;18.206;2023-07-09T14:18:37;3.25;;;1.95;;
34102;SDS011;20381;54.498;18.206;2023-07-09T14:21:06;3.00;;;1.60;;
34102;SDS011;20381;54.498;18.206;2023-07-09T14:23:33;2.17;;;1.60;;
34102;SDS011;20381;54.498;18.206;2023-07-09T14:26:00;10.40;;;2.00;;
34102;SDS011;20381;54.498;18.206;2023-07-09T14:28:28;3.02;;;1.42;;
34102;SDS011;20381;54.498;18.206;2023-07-09T14:30:58;2.27;;;1.53;;
34102;SDS011;20381;54.498;18.206;2023-07-09T14:33:27;2.15;;;1.60;;
34102;SDS011;20381;54.498;18.206;2023-07-09T14:35:53;2.53;;;1.53;;
34102;SDS011;20381;54.498;18.206;2023-07-09T14:38:23;2.62;;;2.00;;
34102;SDS011;20381;54.498;18.206;2023-07-09T14:40:52;2.47;;;1.95;;
34102;SDS011;20381;54.498;18.206;2023-07-09T14:43:21;1.80;;;1.40;;
34102;SDS011;20381;54.498;18.206;2023-07-09T14:48:17;3.85;;;1.75;;
34102;SDS011;20381;54.498;18.206;2023-07-09T14:50:46;3.33;;;1.72;;
34102;SDS011;20381;54.498;18.206;2023-07-09T14:53:24;4.65;;;3.00;;
34102;SDS011;20381;54.498;18.206;2023-07-09T14:55:43;6.80;;;5.45;;
34102;SDS011;20381;54.498;18.206;2023-07-09T14:58:14;4.15;;;3.05;;
34102;SDS011;20381;54.498;18.206;2023-07-09T15:00:42;5.50;;;3.35;;
34102;SDS011;20381;54.498;18.206;2023-07-09T15:03:11;4.53;;;3.30;;
34102;SDS011;20381;54.498;18.206;2023-07-09T15:05:46;6.10;;;3.95;;
34102;SDS011;20381;54.498;18.206;2023-07-09T15:08:14;4.87;;;3.92;;
34102;SDS011;20381;54.498;18.206;2023-07-09T15:10:42;6.12;;;3.55;;
34102;SDS011;20381;54.498;18.206;2023-07-09T15:13:11;7.35;;;4.17;;
34102;SDS011;20381;54.498;18.206;2023-07-09T15:15:39;6.30;;;5.37;;
34102;SDS011;20381;54.498;18.206;2023-07-09T15:18:14;12.53;;;8.27;;
34102;SDS011;20381;54.498;18.206;2023-07-09T15:20:42;14.60;;;9.00;;
34102;SDS011;20381;54.498;18.206;2023-07-09T15:23:10;10.35;;;8.73;;
34102;SDS011;20381;54.498;18.206;2023-07-09T15:25:36;12.05;;;7.90;;
34102;SDS011;20381;54.498;18.206;2023-07-09T15:28:03;5.83;;;4.63;;
34102;SDS011;20381;54.498;18.206;2023-07-09T15:30:29;6.55;;;4.62;;
34102;SDS011;20381;54.498;18.206;2023-07-09T15:32:58;6.00;;;3.60;;
34102;SDS011;20381;54.498;18.206;2023-07-09T15:35:27;7.08;;;3.45;;
34102;SDS011;20381;54.498;18.206;2023-07-09T15:37:59;5.65;;;3.08;;